Norwich, Connecticut
Current Conditions -  °F | °C
As of 3:56 PM on Friday 28 Nov 2014 (Local Time) from KGON Reporting Station
Clear Clear  
Wind Chill: -5°   Ceiling: Unl
Heat Index:   Visibility: 8mi
Dew Point: -8°   Wind: 13mph
Humidity: 52%   Direction: 330°NNW
Pressure: 30.13"   Gusts: NA
Location:  41.53°N, 72.08°W
Report Text: KGON 282056Z 33011KT 8SM CLR 01/M08 A3013 RMK AO2 SLP201 T00061083 53019
Loading
Personal Weather Stations






























Interactive Weather Map New forecast layout! Learn more

10-Day Weather Forecast

Advertisements
Track Severe Weather on mobile